Time;durP1;ratioP1;P1;durP2;ratioP2;P2;SDS_P1;SDS_P2;PMS_P1;PMS_P2;Temp;Humidity;BMP_temperature;BMP_pressure;BME280_temperature;BME280_humidity;BME280_pressure;Samples;Min_cycle;Max_cycle;Signal;HPM_P1;HPM_P2
2023/09/24 00:01:22;;;;;;;3.37;1.90;;;12.40;97.70;;;;;;5016527;28;20246;-16
2023/09/24 00:03:49;;;;;;;2.30;1.80;;;12.40;97.70;;;;;;5020657;28;20284;-16
2023/09/24 00:06:16;;;;;;;2.45;1.80;;;12.40;97.70;;;;;;5026761;28;20044;-15
2023/09/24 00:08:41;;;;;;;2.67;1.58;;;12.30;97.70;;;;;;5005755;28;20040;-17
2023/09/24 00:11:08;;;;;;;2.38;1.63;;;12.30;97.70;;;;;;5014676;28;20025;-16
2023/09/24 00:13:35;;;;;;;2.60;1.43;;;12.30;97.70;;;;;;5020562;28;20045;-16
2023/09/24 00:16:06;;;;;;;2.00;1.45;;;12.20;97.70;;;;;;5029774;28;20320;-16
2023/09/24 00:18:35;;;;;;;2.78;1.80;;;12.20;97.70;;;;;;5021141;28;21497;-17
2023/09/24 00:21:01;;;;;;;2.17;1.50;;;12.20;97.80;;;;;;5024039;28;20017;-16
2023/09/24 00:23:30;;;;;;;2.58;1.70;;;12.20;97.80;;;;;;5027115;28;20060;-16
2023/09/24 00:25:56;;;;;;;2.03;1.60;;;11.30;99.80;;;;;;5004148;28;20033;-15
2023/09/24 00:28:23;;;;;;;2.45;1.60;;;12.10;97.80;;;;;;5029911;28;20792;-15
2023/09/24 00:30:50;;;;;;;2.30;1.50;;;12.10;97.80;;;;;;5007452;28;20224;-16
2023/09/24 00:33:17;;;;;;;2.30;1.70;;;12.10;97.80;;;;;;5036361;28;20095;-16
2023/09/24 00:35:43;;;;;;;2.92;1.70;;;12.10;97.80;;;;;;5024136;28;20063;-16
2023/09/24 00:38:08;;;;;;;4.30;1.67;;;12.00;97.80;;;;;;5034806;28;20017;-16
2023/09/24 00:40:34;;;;;;;2.40;1.60;;;12.00;97.80;;;;;;5004398;28;20048;-17
2023/09/24 00:43:00;;;;;;;2.35;1.50;;;10.70;99.80;;;;;;5027792;28;20557;-16
2023/09/24 00:45:26;;;;;;;2.10;1.53;;;11.90;97.90;;;;;;5007853;28;20045;-16
2023/09/24 00:47:55;;;;;;;3.17;1.40;;;11.90;97.90;;;;;;5019157;28;23508;-15
2023/09/24 00:50:21;;;;;;;1.83;1.50;;;11.90;97.90;;;;;;5019202;28;20033;-15
2023/09/24 00:52:49;;;;;;;2.40;1.40;;;11.90;97.90;;;;;;5023063;28;20330;-16
2023/09/24 00:55:17;;;;;;;2.15;1.60;;;11.90;97.90;;;;;;5031701;28;20033;-15
2023/09/24 00:57:46;;;;;;;2.00;1.27;;;11.80;97.80;;;;;;4987095;28;20051;-16
2023/09/24 01:00:18;;;;;;;1.90;1.40;;;11.90;97.90;;;;;;5021433;28;20368;-19
2023/09/24 01:02:49;;;;;;;2.40;1.48;;;11.80;97.90;;;;;;5010592;28;20200;-17
2023/09/24 01:05:15;;;;;;;2.80;1.50;;;11.80;97.90;;;;;;5026130;28;20442;-16
2023/09/24 01:07:42;;;;;;;2.08;1.42;;;11.70;98.00;;;;;;5033353;28;20033;-16
2023/09/24 01:10:10;;;;;;;2.20;1.30;;;11.70;97.90;;;;;;5033936;28;20042;-16
2023/09/24 01:12:39;;;;;;;2.47;1.23;;;11.70;98.00;;;;;;5006505;28;20041;-16
2023/09/24 01:15:11;;;;;;;2.10;1.40;;;11.70;98.00;;;;;;5022379;28;20606;-16
2023/09/24 01:17:37;;;;;;;3.33;1.20;;;11.70;98.00;;;;;;5025064;28;20029;-17
2023/09/24 01:20:05;;;;;;;2.20;1.30;;;11.60;98.10;;;;;;5037654;28;20354;-16
2023/09/24 01:22:30;;;;;;;3.07;1.37;;;11.60;98.10;;;;;;5022107;28;20045;-16
2023/09/24 01:24:56;;;;;;;2.38;1.20;;;11.60;98.20;;;;;;5031785;28;20033;-16
2023/09/24 01:27:24;;;;;;;2.60;1.50;;;11.60;98.20;;;;;;5036887;28;20033;-16
2023/09/24 01:29:52;;;;;;;2.20;1.20;;;11.60;98.20;;;;;;4998220;28;20623;-16
2023/09/24 01:32:18;;;;;;;3.13;1.40;;;11.60;98.20;;;;;;5030279;28;20029;-16
2023/09/24 01:34:45;;;;;;;3.58;1.40;;;11.60;98.20;;;;;;5000828;28;20048;-16
2023/09/24 01:37:11;;;;;;;1.63;1.30;;;11.50;98.20;;;;;;5023779;28;20459;-16
2023/09/24 01:39:38;;;;;;;2.33;1.47;;;11.50;98.20;;;;;;5027462;28;20040;-17
2023/09/24 01:42:05;;;;;;;1.98;1.30;;;11.50;98.20;;;;;;5033103;28;20044;-16
2023/09/24 01:44:34;;;;;;;2.00;1.30;;;10.70;99.90;;;;;;5006796;28;20032;-16
2023/09/24 01:47:03;;;;;;;1.42;1.10;;;11.40;98.20;;;;;;5009679;28;20839;-16
2023/09/24 01:49:31;;;;;;;2.05;1.25;;;11.40;98.20;;;;;;5029603;28;20063;-17
2023/09/24 01:51:57;;;;;;;3.87;1.30;;;11.40;98.20;;;;;;5012557;28;20766;-16
2023/09/24 01:54:25;;;;;;;1.63;1.20;;;11.40;98.20;;;;;;5036514;28;20400;-16
2023/09/24 01:56:52;;;;;;;1.70;1.15;;;11.40;98.20;;;;;;5030906;28;20217;-15
2023/09/24 01:59:18;;;;;;;2.47;1.55;;;11.40;98.20;;;;;;5009209;28;20133;-16
2023/09/24 02:01:44;;;;;;;1.90;1.40;;;11.40;98.20;;;;;;5003258;28;20175;-17
2023/09/24 02:04:10;;;;;;;2.13;1.33;;;11.30;98.20;;;;;;5033794;28;20032;-16
2023/09/24 02:06:36;;;;;;;2.20;1.25;;;11.30;98.20;;;;;;5023772;28;20083;-16
2023/09/24 02:09:02;;;;;;;2.28;1.40;;;11.30;98.10;;;;;;5020289;28;20249;-15
2023/09/24 02:11:28;;;;;;;2.20;1.30;;;11.20;98.10;;;;;;5033408;28;20037;-16
2023/09/24 02:13:54;;;;;;;3.03;1.20;;;11.20;98.10;;;;;;4993727;28;20037;-16
2023/09/24 02:16:20;;;;;;;2.78;1.17;;;11.20;98.10;;;;;;5012044;28;20214;-15
2023/09/24 02:18:46;;;;;;;1.70;1.10;;;9.90;99.90;;;;;;5027988;28;20028;-16
2023/09/24 02:21:15;;;;;;;2.05;1.08;;;11.10;98.10;;;;;;5007012;28;20815;-16
2023/09/24 02:23:42;;;;;;;1.67;1.15;;;11.10;98.20;;;;;;5021655;28;20035;-16
2023/09/24 02:26:08;;;;;;;1.55;1.02;;;11.10;98.20;;;;;;5023628;28;20065;-17
2023/09/24 02:28:38;;;;;;;1.80;1.00;;;11.10;98.20;;;;;;5031262;28;20072;-16
2023/09/24 02:31:11;;;;;;;1.65;1.20;;;11.10;98.20;;;;;;5001429;28;20122;-16
2023/09/24 02:33:37;;;;;;;1.50;1.20;;;11.00;98.20;;;;;;5030044;28;20039;-16
2023/09/24 02:36:04;;;;;;;2.03;1.08;;;10.30;99.90;;;;;;5007771;28;20029;-17
2023/09/24 02:38:30;;;;;;;1.47;1.00;;;10.90;98.30;;;;;;5025032;28;20078;-16
2023/09/24 02:40:56;;;;;;;3.10;1.10;;;11.00;98.30;;;;;;5017584;28;20040;-16
2023/09/24 02:43:25;;;;;;;1.35;1.00;;;10.10;99.90;;;;;;5023373;28;20229;-17
2023/09/24 02:45:51;;;;;;;1.60;1.17;;;10.90;98.30;;;;;;5001561;28;20558;-16
2023/09/24 02:48:19;;;;;;;1.53;1.20;;;10.90;98.30;;;;;;5020338;28;20127;-15
2023/09/24 02:50:45;;;;;;;1.77;1.08;;;10.90;98.30;;;;;;5019145;28;20145;-16
2023/09/24 02:53:11;;;;;;;1.90;1.08;;;10.90;98.40;;;;;;5032717;28;20037;-17
2023/09/24 02:55:38;;;;;;;1.57;0.97;;;10.80;98.40;;;;;;5019418;28;20072;-16
2023/09/24 02:58:04;;;;;;;3.15;1.00;;;10.30;99.90;;;;;;5020951;28;20033;-17
2023/09/24 03:02:58;;;;;;;1.57;1.07;;;10.80;98.50;;;;;;5024980;28;20037;-17
2023/09/24 03:05:25;;;;;;;1.48;1.00;;;10.80;98.50;;;;;;5026145;28;20146;-15
2023/09/24 03:07:52;;;;;;;1.80;1.20;;;10.80;98.50;;;;;;5017903;28;20040;-15
2023/09/24 03:10:18;;;;;;;1.60;1.10;;;10.80;98.50;;;;;;5020851;28;20116;-17
2023/09/24 03:12:44;;;;;;;1.47;1.07;;;10.80;98.50;;;;;;5028528;28;20037;-16
2023/09/24 03:15:10;;;;;;;1.88;1.00;;;10.80;98.50;;;;;;4989005;28;20488;-17
2023/09/24 03:17:37;;;;;;;2.15;1.10;;;10.80;98.50;;;;;;5044371;28;20036;-16
2023/09/24 03:20:15;;;;;;;1.65;1.10;;;10.80;98.50;;;;;;5022156;28;20033;-17
2023/09/24 03:22:46;;;;;;;1.40;1.10;;;10.70;98.50;;;;;;5020779;28;20032;-17
2023/09/24 03:25:13;;;;;;;1.63;1.20;;;10.70;98.50;;;;;;5016756;28;20048;-16
2023/09/24 03:27:40;;;;;;;1.60;1.10;;;10.70;98.50;;;;;;5018378;28;20030;-16
2023/09/24 03:30:09;;;;;;;1.50;0.95;;;10.70;98.60;;;;;;5004730;28;20045;-16
2023/09/24 03:32:36;;;;;;;1.98;1.02;;;10.60;98.60;;;;;;5025648;28;20041;-15
2023/09/24 03:35:06;;;;;;;2.03;1.10;;;10.70;98.70;;;;;;5020572;28;20105;-17
2023/09/24 03:37:32;;;;;;;2.08;1.20;;;10.70;98.70;;;;;;5009601;28;20057;-16
2023/09/24 03:39:58;;;;;;;1.88;1.13;;;10.60;98.70;;;;;;5026639;28;20029;-16
2023/09/24 03:42:24;;;;;;;2.38;1.10;;;10.60;98.70;;;;;;5021162;28;20154;-16
2023/09/24 03:44:50;;;;;;;1.80;1.10;;;10.60;98.70;;;;;;5027773;28;20074;-16
2023/09/24 03:47:16;;;;;;;1.75;1.20;;;10.60;98.80;;;;;;5003717;28;20033;-16
2023/09/24 03:49:43;;;;;;;1.75;1.00;;;10.60;98.80;;;;;;5023315;28;20037;-16
2023/09/24 03:52:10;;;;;;;2.00;0.90;;;10.00;99.90;;;;;;5029735;28;20483;-17
2023/09/24 03:54:38;;;;;;;2.25;1.10;;;10.60;98.90;;;;;;5022264;28;20036;-16
2023/09/24 03:57:05;;;;;;;1.85;1.10;;;10.60;99.00;;;;;;5017626;28;20020;-16
2023/09/24 03:59:36;;;;;;;1.48;0.93;;;10.60;99.00;;;;;;5019450;28;20340;-16
2023/09/24 04:02:06;;;;;;;2.13;1.20;;;10.60;99.00;;;;;;5021453;28;21679;-17
2023/09/24 04:04:34;;;;;;;1.83;1.00;;;10.60;99.10;;;;;;5029078;28;20154;-16
2023/09/24 04:07:02;;;;;;;1.58;0.80;;;10.60;99.10;;;;;;5020731;28;20040;-16
2023/09/24 04:09:32;;;;;;;1.65;1.10;;;10.60;99.20;;;;;;5016375;28;20048;-16
2023/09/24 04:12:02;;;;;;;2.03;0.93;;;10.60;99.20;;;;;;5033226;28;20074;-16
2023/09/24 04:14:28;;;;;;;2.22;1.20;;;10.60;99.30;;;;;;5019233;28;20063;-16
2023/09/24 04:16:58;;;;;;;1.83;1.20;;;;;;;;;;5028705;28;20414;-16
2023/09/24 04:19:27;;;;;;;2.50;1.17;;;10.60;99.20;;;;;;5010954;28;20147;-16
2023/09/24 04:21:53;;;;;;;2.88;1.20;;;10.60;99.40;;;;;;5020860;28;20527;-16
2023/09/24 04:24:20;;;;;;;2.40;1.10;;;10.60;99.40;;;;;;5016540;28;20033;-16
2023/09/24 04:26:46;;;;;;;2.37;1.30;;;10.60;99.40;;;;;;5026539;28;20064;-15
2023/09/24 04:29:13;;;;;;;2.85;1.10;;;10.60;99.50;;;;;;5009798;28;20083;-17
2023/09/24 04:31:39;;;;;;;3.03;1.10;;;10.60;99.50;;;;;;5032755;28;20052;-16
2023/09/24 04:34:05;;;;;;;3.60;1.30;;;10.60;99.50;;;;;;5008663;28;20055;-17
2023/09/24 04:36:31;;;;;;;1.57;1.00;;;11.10;99.90;;;;;;5023047;28;20747;-16
2023/09/24 04:38:58;;;;;;;1.77;1.10;;;11.50;99.90;;;;;;5025352;28;20025;-19
2023/09/24 04:41:24;;;;;;;2.55;1.23;;;10.50;99.40;;;;;;5001480;28;20041;-18
2023/09/24 04:43:50;;;;;;;2.30;1.07;;;10.60;99.50;;;;;;5015976;28;20201;-17
2023/09/24 04:46:15;;;;;;;1.98;1.10;;;10.60;99.50;;;;;;5021890;28;20037;-17
2023/09/24 04:48:41;;;;;;;1.85;1.30;;;10.60;99.50;;;;;;5007187;28;20048;-18
2023/09/24 04:51:07;;;;;;;2.67;1.30;;;10.60;99.50;;;;;;5027543;28;20098;-17
2023/09/24 04:53:33;;;;;;;2.20;1.23;;;10.50;99.50;;;;;;5021143;28;20082;-18
2023/09/24 04:55:58;;;;;;;2.83;1.30;;;10.60;99.60;;;;;;5020306;28;20025;-18
2023/09/24 04:58:24;;;;;;;1.90;1.10;;;10.60;99.60;;;;;;5017815;28;20361;-18
2023/09/24 05:00:50;;;;;;;1.70;1.13;;;10.60;99.60;;;;;;5025209;28;20575;-17
2023/09/24 05:03:17;;;;;;;2.17;1.07;;;10.50;99.60;;;;;;5014650;28;20028;-17
2023/09/24 05:05:43;;;;;;;1.90;0.98;;;13.60;99.90;;;;;;5008270;28;20040;-17
2023/09/24 05:08:10;;;;;;;1.70;1.10;;;10.30;99.90;;;;;;5009192;28;20045;-18
2023/09/24 05:10:40;;;;;;;1.90;1.00;;;10.50;99.60;;;;;;5030056;28;20133;-17
2023/09/24 05:13:06;;;;;;;1.60;0.93;;;10.50;99.60;;;;;;5022800;28;20041;-18
2023/09/24 05:15:32;;;;;;;1.50;0.90;;;10.60;99.80;;;;;;5028133;28;20160;-17
2023/09/24 05:17:57;;;;;;;2.80;1.10;;;10.20;99.90;;;;;;5023813;28;20122;-17
2023/09/24 05:20:23;;;;;;;2.10;0.90;;;10.50;99.60;;;;;;4983549;28;20072;-17
2023/09/24 05:22:49;;;;;;;1.50;0.90;;;10.50;99.60;;;;;;5009578;28;20461;-19
2023/09/24 05:25:15;;;;;;;1.63;1.00;;;10.50;99.70;;;;;;5008136;28;20033;-19
2023/09/24 05:27:40;;;;;;;2.00;1.20;;;10.50;99.70;;;;;;5017108;28;20224;-18
2023/09/24 05:30:07;;;;;;;2.92;1.00;;;10.50;99.70;;;;;;5018635;28;20041;-19
2023/09/24 05:32:34;;;;;;;2.08;1.13;;;10.50;99.70;;;;;;5019838;28;20032;-17
2023/09/24 05:35:00;;;;;;;2.63;1.10;;;10.50;99.80;;;;;;5007335;28;20075;-18
2023/09/24 05:37:26;;;;;;;2.10;1.20;;;10.40;99.70;;;;;;5020443;28;20033;-18
2023/09/24 05:39:51;;;;;;;2.50;1.20;;;10.50;99.80;;;;;;5017398;28;20022;-18
2023/09/24 05:42:17;;;;;;;2.37;1.30;;;10.50;99.80;;;;;;5003732;28;20381;-17
2023/09/24 05:44:44;;;;;;;1.65;1.10;;;10.50;99.80;;;;;;5032567;28;20579;-18
2023/09/24 05:47:10;;;;;;;2.20;1.20;;;10.50;99.90;;;;;;5015746;28;20487;-18
2023/09/24 05:49:36;;;;;;;2.75;1.20;;;10.50;99.90;;;;;;5023041;28;21160;-18
2023/09/24 05:52:03;;;;;;;3.03;1.23;;;10.50;99.90;;;;;;5006201;28;20151;-16
2023/09/24 05:54:29;;;;;;;2.33;1.17;;;10.50;99.90;;;;;;5011280;28;20142;-15
2023/09/24 05:56:54;;;;;;;2.40;1.17;;;9.20;99.90;;;;;;5026773;28;20025;-16
2023/09/24 05:59:20;;;;;;;2.30;1.13;;;10.50;99.90;;;;;;5013845;28;20033;-16
2023/09/24 06:01:46;;;;;;;3.00;1.10;;;10.50;99.90;;;;;;5020623;28;20025;-17
2023/09/24 06:04:12;;;;;;;1.90;1.20;;;10.50;99.90;;;;;;5025514;28;20392;-17
2023/09/24 06:06:39;;;;;;;1.73;1.23;;;10.50;99.90;;;;;;5007654;28;20307;-16
2023/09/24 06:09:09;;;;;;;2.13;1.25;;;10.50;99.90;;;;;;5019591;28;20338;-16
2023/09/24 06:11:38;;;;;;;2.08;1.10;;;10.50;99.90;;;;;;5019302;28;20424;-16
2023/09/24 06:14:08;;;;;;;2.53;1.30;;;10.50;99.90;;;;;;5019970;28;20041;-18
2023/09/24 06:16:37;;;;;;;2.03;1.10;;;10.50;99.90;;;;;;5019149;28;20029;-16
2023/09/24 06:19:03;;;;;;;2.90;1.10;;;10.50;99.90;;;;;;5010335;28;20483;-16
2023/09/24 06:21:30;;;;;;;1.63;1.05;;;10.50;99.90;;;;;;5030464;28;20053;-17
2023/09/24 06:23:55;;;;;;;2.10;0.88;;;10.60;99.90;;;;;;4983888;28;20223;-17
2023/09/24 06:26:22;;;;;;;2.47;1.30;;;10.60;99.90;;;;;;5021974;28;20590;-16
2023/09/24 06:28:47;;;;;;;1.90;1.10;;;10.60;99.90;;;;;;5023971;28;20484;-16
2023/09/24 06:31:13;;;;;;;3.58;1.27;;;10.60;99.90;;;;;;5022605;28;20029;-16
2023/09/24 06:33:39;;;;;;;2.97;1.20;;;10.70;99.90;;;;;;5034488;28;20057;-16
2023/09/24 06:36:05;;;;;;;4.85;1.40;;;10.70;99.90;;;;;;5026274;28;20040;-17
2023/09/24 06:38:32;;;;;;;2.95;1.30;;;10.70;99.90;;;;;;5008011;28;20438;-16
2023/09/24 06:41:02;;;;;;;2.27;1.07;;;10.80;99.90;;;;;;5015343;28;20028;-17
2023/09/24 06:43:28;;;;;;;1.90;1.10;;;10.80;99.90;;;;;;5019630;28;20041;-16
2023/09/24 06:45:55;;;;;;;5.80;1.30;;;10.90;99.90;;;;;;5033600;28;20022;-16
2023/09/24 06:48:25;;;;;;;1.55;1.00;;;10.90;99.90;;;;;;5021970;28;20403;-16
2023/09/24 06:50:53;;;;;;;2.00;1.10;;;11.00;99.90;;;;;;5019110;28;20329;-16
2023/09/24 06:53:19;;;;;;;2.70;1.13;;;11.10;99.90;;;;;;5024734;28;20044;-17
2023/09/24 06:55:46;;;;;;;2.95;1.20;;;11.10;99.90;;;;;;4996813;28;20447;-16
2023/09/24 06:58:13;;;;;;;2.97;1.10;;;11.20;99.90;;;;;;5017841;28;20101;-16
2023/09/24 07:00:39;;;;;;;2.50;1.10;;;11.30;99.90;;;;;;5022392;28;20044;-16
2023/09/24 07:03:05;;;;;;;1.93;1.10;;;11.40;99.90;;;;;;5004984;28;20068;-16
2023/09/24 07:05:31;;;;;;;2.67;1.05;;;11.50;99.90;;;;;;5013622;28;20041;-16
2023/09/24 07:07:57;;;;;;;1.98;1.08;;;11.60;99.90;;;;;;5029568;28;20033;-16
2023/09/24 07:10:24;;;;;;;1.95;1.20;;;11.70;99.90;;;;;;5000685;28;20469;-16
2023/09/24 07:12:51;;;;;;;1.55;0.98;;;11.80;99.90;;;;;;5023447;28;20178;-16
2023/09/24 07:15:17;;;;;;;1.73;0.97;;;11.90;99.90;;;;;;5020359;28;20021;-17
2023/09/24 07:17:43;;;;;;;2.00;1.10;;;12.00;99.90;;;;;;5027639;28;20040;-16
2023/09/24 07:20:09;;;;;;;2.15;1.10;;;12.10;99.90;;;;;;5029540;28;20700;-16
2023/09/24 07:22:35;;;;;;;2.43;1.10;;;12.20;99.90;;;;;;5024742;28;20493;-15
2023/09/24 07:25:02;;;;;;;1.73;1.10;;;12.40;99.90;;;;;;5001729;28;20033;-16
2023/09/24 07:27:28;;;;;;;2.03;1.02;;;12.60;99.90;;;;;;5014435;28;20056;-17
2023/09/24 07:29:55;;;;;;;1.87;1.00;;;13.00;99.90;;;;;;5026530;28;20026;-16
2023/09/24 07:32:21;;;;;;;1.50;0.98;;;13.50;99.90;;;;;;5018403;28;20036;-17
2023/09/24 07:34:47;;;;;;;2.23;1.10;;;14.10;99.90;;;;;;5032124;28;20230;-16
2023/09/24 07:37:14;;;;;;;2.22;1.00;;;14.70;99.90;;;;;;5036733;28;20392;-17
2023/09/24 07:39:40;;;;;;;1.40;0.80;;;15.40;99.90;;;;;;4991894;28;20124;-16
2023/09/24 07:42:07;;;;;;;1.55;0.90;;;16.10;99.90;;;;;;5024178;28;20021;-16
2023/09/24 07:44:33;;;;;;;1.48;0.90;;;16.80;99.90;;;;;;5027187;28;20491;-16
2023/09/24 07:46:59;;;;;;;1.30;0.87;;;17.40;99.90;;;;;;5002416;28;20083;-16
2023/09/24 07:49:24;;;;;;;1.60;0.80;;;18.00;99.90;;;;;;5025399;28;20032;-17
2023/09/24 07:51:50;;;;;;;1.50;0.85;;;18.70;99.90;;;;;;5025719;28;20349;-16
2023/09/24 07:54:17;;;;;;;1.07;0.90;;;19.20;99.90;;;;;;5029894;28;20040;-17
2023/09/24 07:56:43;;;;;;;1.77;0.70;;;19.80;99.90;;;;;;4996514;28;20253;-16
2023/09/24 07:59:10;;;;;;;1.30;0.70;;;20.30;99.90;;;;;;5029832;28;20061;-17
2023/09/24 08:01:36;;;;;;;1.25;1.10;;;20.80;99.90;;;;;;5026388;28;20408;-16
2023/09/24 08:04:01;;;;;;;1.87;0.70;;;21.20;99.90;;;;;;5021390;28;20076;-16
2023/09/24 08:06:28;;;;;;;1.80;0.80;;;21.70;99.90;;;;;;5028364;28;20816;-17
2023/09/24 08:08:55;;;;;;;1.65;0.77;;;22.10;99.90;;;;;;5046367;28;20033;-16
2023/09/24 08:11:24;;;;;;;1.83;0.80;;;22.40;99.90;;;;;;5016516;28;20025;-21
2023/09/24 08:13:51;;;;;;;1.05;0.80;;;22.70;99.90;;;;;;5021338;28;20040;-20
2023/09/24 08:16:17;;;;;;;1.42;0.80;;;23.10;99.90;;;;;;5032486;28;20033;-18
2023/09/24 08:18:46;;;;;;;2.45;1.00;;;23.30;99.90;;;;;;5017097;28;20106;-19
2023/09/24 08:21:12;;;;;;;1.17;0.95;;;23.60;99.90;;;;;;5026286;28;20314;-19
2023/09/24 08:23:38;;;;;;;2.03;0.80;;;23.90;99.90;;;;;;5026217;28;20138;-20
2023/09/24 08:26:04;;;;;;;2.33;0.82;;;24.20;99.90;;;;;;5032166;28;20026;-19
2023/09/24 08:28:29;;;;;;;2.33;0.80;;;24.40;99.90;;;;;;5006660;28;20385;-18
2023/09/24 08:30:55;;;;;;;0.70;0.57;;;24.60;99.90;;;;;;5027348;28;20132;-19
2023/09/24 08:33:21;;;;;;;0.93;0.70;;;24.80;99.90;;;;;;5025374;28;20021;-19
2023/09/24 08:35:47;;;;;;;2.00;1.10;;;25.00;99.90;;;;;;5021483;28;20468;-18
2023/09/24 08:38:13;;;;;;;1.20;0.80;;;25.20;99.90;;;;;;5031944;28;20044;-18
2023/09/24 08:40:40;;;;;;;1.98;0.88;;;25.40;99.90;;;;;;5028203;28;20234;-20
2023/09/24 08:43:14;;;;;;;1.58;0.95;;;25.60;99.90;;;;;;5001184;28;20234;-18
2023/09/24 08:45:42;;;;;;;1.83;0.80;;;25.80;99.90;;;;;;5033824;28;20025;-18
2023/09/24 08:48:09;;;;;;;1.60;0.80;;;26.10;99.90;;;;;;5012263;28;21252;-18
2023/09/24 08:50:40;;;;;;;1.47;0.80;;;26.30;99.90;;;;;;5034649;28;20031;-18
2023/09/24 08:53:10;;;;;;;2.33;0.88;;;26.60;99.90;;;;;;5026233;28;20245;-18
2023/09/24 08:55:38;;;;;;;1.80;1.27;;;26.80;99.90;;;;;;5019748;28;20025;-21
2023/09/24 08:58:04;;;;;;;2.22;1.05;;;27.00;99.90;;;;;;5000211;28;20218;-18
2023/09/24 09:00:30;;;;;;;2.40;1.13;;;27.20;99.90;;;;;;5023557;28;20034;-19
2023/09/24 09:03:00;;;;;;;1.70;0.90;;;27.30;99.90;;;;;;5018258;28;20242;-19
2023/09/24 09:05:26;;;;;;;1.00;0.90;;;27.30;99.90;;;;;;5032673;28;20092;-18
2023/09/24 09:07:58;;;;;;;2.45;1.00;;;27.40;99.90;;;;;;5024812;28;20512;-20
2023/09/24 09:10:27;;;;;;;1.97;0.87;;;27.50;99.90;;;;;;5036828;28;20043;-19
2023/09/24 09:13:08;;;;;;;1.63;0.80;;;27.50;99.90;;;;;;4991813;28;20544;-18
2023/09/24 09:15:35;;;;;;;2.05;0.90;;;27.50;99.60;;;;;;5041206;28;20038;-18
2023/09/24 09:18:02;;;;;;;1.80;1.00;;;27.60;99.90;;;;;;5025834;28;20021;-18
2023/09/24 09:20:45;;;;;;;1.73;1.25;;;27.70;99.90;;;;;;5028674;28;20022;-18
2023/09/24 09:23:13;;;;;;;1.47;0.90;;;27.80;99.60;;;;;;5035960;28;20534;-16
2023/09/24 09:25:52;;;;;;;1.40;1.10;;;27.80;99.90;;;;;;5024568;28;20033;-17
2023/09/24 09:28:22;;;;;;;1.17;1.00;;;27.90;99.90;;;;;;5029824;28;20478;-17
2023/09/24 09:31:07;;;;;;;2.13;1.13;;;28.00;99.90;;;;;;5004979;28;20419;-16
2023/09/24 09:33:44;;;;;;;1.88;1.02;;;28.00;99.20;;;;;;5031879;28;20029;-17
2023/09/24 09:36:22;;;;;;;1.87;1.00;;;28.20;99.50;;;;;;5032860;28;20033;-16
2023/09/24 09:38:53;;;;;;;1.70;1.10;;;28.30;99.60;;;;;;5018346;28;20223;-16
2023/09/24 09:41:20;;;;;;;2.33;1.20;;;28.40;99.90;;;;;;5033213;28;20021;-17
2023/09/24 09:43:47;;;;;;;1.67;1.10;;;28.50;99.90;;;;;;5029330;28;20246;-16
2023/09/24 09:46:18;;;;;;;2.95;1.30;;;28.60;99.90;;;;;;5010521;28;20036;-15
2023/09/24 09:48:55;;;;;;;1.80;1.30;;;28.70;99.90;;;;;;5027393;28;20024;-16
2023/09/24 09:51:22;;;;;;;2.00;1.17;;;28.90;99.90;;;;;;5030275;28;20556;-15
2023/09/24 09:53:52;;;;;;;1.40;1.13;;;29.00;99.90;;;;;;5017852;28;20037;-16
2023/09/24 09:56:19;;;;;;;1.70;1.30;;;29.20;99.90;;;;;;5031721;28;20157;-16
2023/09/24 09:58:48;;;;;;;2.28;1.10;;;29.40;99.90;;;;;;5014743;28;20029;-17
2023/09/24 10:01:18;;;;;;;1.77;1.03;;;29.60;99.90;;;;;;4982409;28;20494;-18
2023/09/24 10:03:45;;;;;;;1.92;1.30;;;29.70;99.90;;;;;;5001144;28;20038;-17
2023/09/24 10:06:12;;;;;;;1.20;1.10;;;29.70;99.90;;;;;;5012841;28;20026;-18
2023/09/24 10:08:47;;;;;;;1.55;1.20;;;29.90;99.90;;;;;;5014639;28;20044;-16
2023/09/24 10:11:31;;;;;;;1.98;1.20;;;30.10;99.90;;;;;;5029790;28;20669;-18
2023/09/24 10:14:05;;;;;;;1.80;1.30;;;30.30;99.20;;;;;;5045262;28;20147;-18
2023/09/24 10:16:41;;;;;;;1.77;1.20;;;30.50;99.90;;;;;;5070804;22;20234;-18
2023/09/24 10:19:13;;;;;;;1.98;1.27;;;30.70;99.80;;;;;;5043524;28;20028;-18
2023/09/24 10:24:17;;;;;;;1.90;1.13;;;31.00;99.70;;;;;;4977800;28;20497;-19
2023/09/24 10:26:51;;;;;;;3.07;1.60;;;31.10;99.90;;;;;;4979499;23;20058;-19
2023/09/24 10:29:40;;;;;;;2.20;1.33;;;31.20;99.90;;;;;;4963082;28;20034;-18
2023/09/24 10:32:06;;;;;;;2.13;1.30;;;31.20;99.90;;;;;;4952983;28;20026;-19
2023/09/24 10:34:55;;;;;;;1.67;1.20;;;31.20;99.90;;;;;;4965489;28;20080;-20
2023/09/24 10:37:22;;;;;;;1.48;1.30;;;31.30;96.50;;;;;;4961007;28;20035;-20
2023/09/24 10:40:03;;;;;;;2.22;1.50;;;31.40;99.90;;;;;;4961808;28;20027;-20
2023/09/24 10:42:34;;;;;;;2.58;1.35;;;31.50;97.30;;;;;;4974070;28;20130;-19
2023/09/24 10:45:05;;;;;;;1.67;1.25;;;31.60;99.90;;;;;;4963636;28;20077;-19
2023/09/24 10:47:35;;;;;;;2.17;1.50;;;31.80;99.90;;;;;;4980998;22;20079;-20
2023/09/24 10:53:02;;;;;;;1.40;1.30;;;32.10;99.30;;;;;;4951922;28;20069;-19
2023/09/24 10:55:33;;;;;;;0.90;0.90;;;32.10;99.90;;;;;;4946496;28;20041;-19
2023/09/24 10:58:03;;;;;;;1.52;1.10;;;32.10;99.90;;;;;;4953116;28;20041;-20
2023/09/24 11:00:30;;;;;;;1.70;1.30;;;32.10;98.70;;;;;;4947097;28;20112;-19
2023/09/24 11:02:59;;;;;;;1.67;1.50;;;32.00;99.80;;;;;;4917002;28;20043;-19
2023/09/24 11:05:29;;;;;;;1.80;1.20;;;32.00;99.90;;;;;;4933289;28;20049;-20
2023/09/24 11:07:56;;;;;;;2.03;1.40;;;32.00;99.90;;;;;;4944780;28;20027;-20
2023/09/24 11:10:24;;;;;;;1.67;1.30;;;32.00;99.90;;;;;;4941451;28;20101;-19
2023/09/24 11:12:51;;;;;;;1.27;1.13;;;32.00;99.90;;;;;;4934927;28;20070;-20
2023/09/24 11:15:19;;;;;;;1.75;1.10;;;32.00;99.90;;;;;;4967804;28;20431;-19
2023/09/24 11:17:47;;;;;;;1.20;1.10;;;32.10;99.90;;;;;;4930402;28;20054;-20
2023/09/24 11:20:17;;;;;;;1.92;1.30;;;32.10;99.60;;;;;;4935034;28;20528;-19
2023/09/24 11:22:43;;;;;;;1.85;1.20;;;32.00;99.40;;;;;;4938488;28;20128;-20
2023/09/24 11:25:10;;;;;;;2.60;1.27;;;32.10;99.10;;;;;;4935976;28;20035;-19
2023/09/24 11:27:53;;;;;;;1.65;1.20;;;32.10;99.10;;;;;;4986881;28;20121;-19
2023/09/24 11:30:21;;;;;;;1.88;1.20;;;32.00;95.70;;;;;;4950592;28;20041;-19
2023/09/24 11:32:49;;;;;;;2.65;1.48;;;32.00;99.30;;;;;;4918402;28;20026;-19
2023/09/24 11:35:18;;;;;;;1.45;1.20;;;32.10;99.00;;;;;;4960474;28;20030;-19
2023/09/24 11:37:50;;;;;;;1.83;1.20;;;32.10;97.40;;;;;;4945395;28;20038;-20
2023/09/24 11:40:33;;;;;;;1.58;1.30;;;32.20;97.20;;;;;;4951813;28;20028;-20
2023/09/24 11:43:04;;;;;;;1.60;1.30;;;32.40;96.20;;;;;;4950584;28;20186;-18
2023/09/24 11:45:42;;;;;;;1.65;1.23;;;32.50;98.70;;;;;;4949810;28;20031;-18
2023/09/24 11:48:11;;;;;;;1.80;1.30;;;32.50;95.90;;;;;;4944258;28;20585;-18
2023/09/24 11:50:40;;;;;;;1.83;1.40;;;32.70;98.90;;;;;;4925616;28;20125;-19
2023/09/24 11:53:06;;;;;;;1.85;1.30;;;32.70;99.30;;;;;;5007828;27;20041;-19
2023/09/24 11:55:32;;;;;;;1.10;1.00;;;32.80;99.00;;;;;;5078922;27;20090;-19
2023/09/24 11:57:58;;;;;;;1.50;1.17;;;32.90;99.70;;;;;;4997481;28;20659;-18
2023/09/24 12:00:24;;;;;;;2.23;1.30;;;33.00;99.80;;;;;;5003946;27;20026;-18
2023/09/24 12:02:50;;;;;;;1.40;1.30;;;33.20;99.80;;;;;;5063175;27;20438;-18
2023/09/24 12:05:16;;;;;;;1.85;1.23;;;33.40;99.80;;;;;;4981856;27;20629;-18
2023/09/24 12:07:42;;;;;;;2.00;1.30;;;33.50;99.90;;;;;;5043069;28;20052;-19
2023/09/24 12:10:08;;;;;;;2.08;1.30;;;33.70;98.90;;;;;;5053045;28;20029;-18
2023/09/24 12:12:34;;;;;;;1.65;1.30;;;33.60;97.80;;;;;;4985078;28;20049;-19
2023/09/24 12:15:01;;;;;;;1.63;0.93;;;33.50;97.30;;;;;;5002629;28;20287;-17
2023/09/24 12:17:27;;;;;;;2.57;1.20;;;33.40;97.20;;;;;;5006102;28;20045;-19
2023/09/24 12:19:53;;;;;;;2.40;1.23;;;33.30;96.50;;;;;;5003339;28;20055;-18
2023/09/24 12:22:20;;;;;;;2.40;1.58;;;33.30;97.20;;;;;;4990898;28;20120;-17
2023/09/24 12:24:46;;;;;;;1.88;1.50;;;33.20;96.30;;;;;;5012314;27;20037;-18
2023/09/24 12:27:12;;;;;;;1.80;1.37;;;33.10;96.50;;;;;;5036895;28;20045;-18
2023/09/24 12:29:38;;;;;;;2.80;1.40;;;33.00;95.80;;;;;;5007013;28;20036;-18
2023/09/24 12:32:03;;;;;;;1.60;0.97;;;32.90;96.00;;;;;;5006093;28;20522;-18
2023/09/24 12:34:29;;;;;;;1.88;1.13;;;32.80;95.70;;;;;;5063475;28;20548;-19
2023/09/24 12:36:55;;;;;;;1.83;1.40;;;32.70;96.20;;;;;;4966114;28;20033;-18
2023/09/24 12:39:21;;;;;;;2.10;1.10;;;32.60;95.60;;;;;;5023350;28;20033;-18
2023/09/24 12:41:47;;;;;;;1.70;1.20;;;32.50;95.30;;;;;;5071502;28;20029;-18
2023/09/24 12:44:13;;;;;;;2.17;1.37;;;32.40;95.60;;;;;;4993188;28;20504;-18
2023/09/24 12:46:39;;;;;;;1.58;1.08;;;32.40;95.90;;;;;;5004831;28;20141;-18
2023/09/24 12:49:05;;;;;;;1.58;1.17;;;32.40;96.00;;;;;;5071480;28;20150;-18
2023/09/24 12:51:31;;;;;;;1.80;1.20;;;32.40;96.00;;;;;;4977557;28;20785;-18
2023/09/24 12:53:57;;;;;;;2.65;1.40;;;32.30;95.80;;;;;;4997708;28;20040;-19
2023/09/24 12:56:23;;;;;;;1.70;1.30;;;32.20;96.00;;;;;;5003840;28;20088;-17
2023/09/24 12:58:51;;;;;;;2.10;0.93;;;32.20;96.10;;;;;;4994601;28;20888;-18